sensor_id;sensor_type;location;lat;lon;timestamp;P1;durP1;ratioP1;P2;durP2;ratioP2
9712;SDS011;4895;50.926;6.870;2023-01-30T00:00:49;30.33;;;14.37;;
9712;SDS011;4895;50.926;6.870;2023-01-30T00:03:16;26.87;;;13.53;;
9712;SDS011;4895;50.926;6.870;2023-01-30T00:05:41;26.13;;;13.57;;
9712;SDS011;4895;50.926;6.870;2023-01-30T00:08:06;27.63;;;14.63;;
9712;SDS011;4895;50.926;6.870;2023-01-30T00:10:32;29.57;;;13.70;;
9712;SDS011;4895;50.926;6.870;2023-01-30T00:12:57;27.73;;;15.10;;
9712;SDS011;4895;50.926;6.870;2023-01-30T00:15:22;28.27;;;13.80;;
9712;SDS011;4895;50.926;6.870;2023-01-30T00:17:47;25.60;;;12.43;;
9712;SDS011;4895;50.926;6.870;2023-01-30T00:20:13;27.27;;;14.47;;
9712;SDS011;4895;50.926;6.870;2023-01-30T00:22:38;28.83;;;13.87;;
9712;SDS011;4895;50.926;6.870;2023-01-30T00:25:03;33.23;;;15.50;;
9712;SDS011;4895;50.926;6.870;2023-01-30T00:27:29;29.73;;;15.43;;
9712;SDS011;4895;50.926;6.870;2023-01-30T00:29:54;29.80;;;15.23;;
9712;SDS011;4895;50.926;6.870;2023-01-30T00:32:19;32.20;;;14.63;;
9712;SDS011;4895;50.926;6.870;2023-01-30T00:34:45;36.20;;;16.13;;
9712;SDS011;4895;50.926;6.870;2023-01-30T00:37:10;32.57;;;16.93;;
9712;SDS011;4895;50.926;6.870;2023-01-30T00:39:35;33.07;;;16.20;;
9712;SDS011;4895;50.926;6.870;2023-01-30T00:42:00;33.70;;;16.20;;
9712;SDS011;4895;50.926;6.870;2023-01-30T00:44:44;37.90;;;16.30;;
9712;SDS011;4895;50.926;6.870;2023-01-30T00:47:28;31.73;;;16.90;;
9712;SDS011;4895;50.926;6.870;2023-01-30T00:49:54;29.30;;;16.00;;
9712;SDS011;4895;50.926;6.870;2023-01-30T00:52:19;29.60;;;15.57;;
9712;SDS011;4895;50.926;6.870;2023-01-30T00:54:44;32.90;;;16.03;;
9712;SDS011;4895;50.926;6.870;2023-01-30T00:57:10;37.30;;;16.73;;
9712;SDS011;4895;50.926;6.870;2023-01-30T00:59:35;32.30;;;14.70;;
9712;SDS011;4895;50.926;6.870;2023-01-30T01:02:00;33.13;;;16.90;;
9712;SDS011;4895;50.926;6.870;2023-01-30T01:04:25;29.20;;;15.40;;
9712;SDS011;4895;50.926;6.870;2023-01-30T01:06:51;33.87;;;15.93;;
9712;SDS011;4895;50.926;6.870;2023-01-30T01:09:16;33.20;;;17.43;;
9712;SDS011;4895;50.926;6.870;2023-01-30T01:11:42;32.77;;;16.50;;
9712;SDS011;4895;50.926;6.870;2023-01-30T01:14:07;29.00;;;15.50;;
9712;SDS011;4895;50.926;6.870;2023-01-30T01:16:33;32.27;;;14.90;;
9712;SDS011;4895;50.926;6.870;2023-01-30T01:18:59;36.23;;;15.97;;
9712;SDS011;4895;50.926;6.870;2023-01-30T01:21:24;34.80;;;16.17;;
9712;SDS011;4895;50.926;6.870;2023-01-30T01:23:51;30.87;;;15.00;;
9712;SDS011;4895;50.926;6.870;2023-01-30T01:26:20;35.70;;;17.60;;
9712;SDS011;4895;50.926;6.870;2023-01-30T01:28:46;27.53;;;14.57;;
9712;SDS011;4895;50.926;6.870;2023-01-30T01:31:13;39.10;;;17.00;;
9712;SDS011;4895;50.926;6.870;2023-01-30T01:33:39;34.80;;;17.30;;
9712;SDS011;4895;50.926;6.870;2023-01-30T01:36:05;27.50;;;13.73;;
9712;SDS011;4895;50.926;6.870;2023-01-30T01:38:31;34.80;;;15.73;;
9712;SDS011;4895;50.926;6.870;2023-01-30T01:40:56;32.20;;;16.30;;
9712;SDS011;4895;50.926;6.870;2023-01-30T01:43:30;33.93;;;16.40;;
9712;SDS011;4895;50.926;6.870;2023-01-30T01:45:59;29.20;;;15.40;;
9712;SDS011;4895;50.926;6.870;2023-01-30T01:48:31;36.73;;;17.00;;
9712;SDS011;4895;50.926;6.870;2023-01-30T01:51:08;30.27;;;14.90;;
9712;SDS011;4895;50.926;6.870;2023-01-30T01:53:38;30.13;;;13.93;;
9712;SDS011;4895;50.926;6.870;2023-01-30T01:56:06;33.70;;;15.20;;
9712;SDS011;4895;50.926;6.870;2023-01-30T01:58:36;30.73;;;14.90;;
9712;SDS011;4895;50.926;6.870;2023-01-30T02:01:05;31.70;;;16.87;;
9712;SDS011;4895;50.926;6.870;2023-01-30T02:03:31;34.50;;;15.93;;
9712;SDS011;4895;50.926;6.870;2023-01-30T02:06:00;31.90;;;15.80;;
9712;SDS011;4895;50.926;6.870;2023-01-30T02:08:34;37.97;;;16.63;;
9712;SDS011;4895;50.926;6.870;2023-01-30T02:11:08;33.00;;;16.37;;
9712;SDS011;4895;50.926;6.870;2023-01-30T02:13:36;34.53;;;15.40;;
9712;SDS011;4895;50.926;6.870;2023-01-30T02:16:03;32.10;;;16.50;;
9712;SDS011;4895;50.926;6.870;2023-01-30T02:18:29;30.90;;;15.87;;
9712;SDS011;4895;50.926;6.870;2023-01-30T02:23:47;37.67;;;17.43;;
9712;SDS011;4895;50.926;6.870;2023-01-30T02:29:00;32.13;;;16.10;;
9712;SDS011;4895;50.926;6.870;2023-01-30T02:40:17;35.73;;;17.60;;
9712;SDS011;4895;50.926;6.870;2023-01-30T02:45:40;27.37;;;13.70;;
9712;SDS011;4895;50.926;6.870;2023-01-30T02:48:34;30.63;;;16.23;;
9712;SDS011;4895;50.926;6.870;2023-01-30T02:51:12;30.63;;;16.40;;
9712;SDS011;4895;50.926;6.870;2023-01-30T02:53:44;29.37;;;15.73;;
9712;SDS011;4895;50.926;6.870;2023-01-30T02:56:11;33.07;;;16.83;;
9712;SDS011;4895;50.926;6.870;2023-01-30T02:58:37;31.50;;;16.20;;
9712;SDS011;4895;50.926;6.870;2023-01-30T03:03:52;34.53;;;16.97;;
9712;SDS011;4895;50.926;6.870;2023-01-30T03:11:45;33.93;;;16.70;;
9712;SDS011;4895;50.926;6.870;2023-01-30T03:14:17;32.97;;;15.10;;
9712;SDS011;4895;50.926;6.870;2023-01-30T03:16:46;31.50;;;13.80;;
9712;SDS011;4895;50.926;6.870;2023-01-30T03:19:12;41.40;;;17.40;;
9712;SDS011;4895;50.926;6.870;2023-01-30T03:21:44;32.13;;;16.30;;
9712;SDS011;4895;50.926;6.870;2023-01-30T03:24:09;32.70;;;15.30;;
9712;SDS011;4895;50.926;6.870;2023-01-30T03:26:36;30.37;;;15.67;;
9712;SDS011;4895;50.926;6.870;2023-01-30T03:29:05;32.57;;;14.77;;
9712;SDS011;4895;50.926;6.870;2023-01-30T03:31:31;36.77;;;16.73;;
9712;SDS011;4895;50.926;6.870;2023-01-30T03:33:56;33.47;;;15.90;;
9712;SDS011;4895;50.926;6.870;2023-01-30T03:36:21;34.20;;;17.60;;
9712;SDS011;4895;50.926;6.870;2023-01-30T03:38:46;35.00;;;16.80;;
9712;SDS011;4895;50.926;6.870;2023-01-30T03:41:12;33.57;;;15.30;;
9712;SDS011;4895;50.926;6.870;2023-01-30T03:43:37;30.60;;;15.53;;
9712;SDS011;4895;50.926;6.870;2023-01-30T03:46:02;27.77;;;13.70;;
9712;SDS011;4895;50.926;6.870;2023-01-30T03:48:28;36.97;;;16.07;;
9712;SDS011;4895;50.926;6.870;2023-01-30T03:50:53;32.03;;;14.80;;
9712;SDS011;4895;50.926;6.870;2023-01-30T03:53:18;30.80;;;14.70;;
9712;SDS011;4895;50.926;6.870;2023-01-30T03:55:43;36.50;;;14.93;;
9712;SDS011;4895;50.926;6.870;2023-01-30T03:58:09;31.07;;;14.03;;
9712;SDS011;4895;50.926;6.870;2023-01-30T04:00:34;30.33;;;16.40;;
9712;SDS011;4895;50.926;6.870;2023-01-30T04:02:59;38.33;;;17.60;;
9712;SDS011;4895;50.926;6.870;2023-01-30T04:05:25;31.60;;;15.27;;
9712;SDS011;4895;50.926;6.870;2023-01-30T04:07:50;28.10;;;14.83;;
9712;SDS011;4895;50.926;6.870;2023-01-30T04:10:16;23.73;;;12.50;;
9712;SDS011;4895;50.926;6.870;2023-01-30T04:12:44;27.60;;;13.70;;
9712;SDS011;4895;50.926;6.870;2023-01-30T04:15:10;28.23;;;13.90;;
9712;SDS011;4895;50.926;6.870;2023-01-30T04:17:35;24.97;;;13.70;;
9712;SDS011;4895;50.926;6.870;2023-01-30T04:20:00;23.77;;;13.17;;
9712;SDS011;4895;50.926;6.870;2023-01-30T04:22:26;23.90;;;13.40;;
9712;SDS011;4895;50.926;6.870;2023-01-30T04:24:51;24.73;;;12.40;;
9712;SDS011;4895;50.926;6.870;2023-01-30T04:27:16;23.83;;;10.27;;
9712;SDS011;4895;50.926;6.870;2023-01-30T04:29:42;27.80;;;12.50;;
9712;SDS011;4895;50.926;6.870;2023-01-30T04:32:07;26.77;;;12.77;;
9712;SDS011;4895;50.926;6.870;2023-01-30T04:34:32;27.87;;;13.87;;
9712;SDS011;4895;50.926;6.870;2023-01-30T04:36:57;28.13;;;12.93;;
9712;SDS011;4895;50.926;6.870;2023-01-30T04:39:23;24.77;;;13.20;;
9712;SDS011;4895;50.926;6.870;2023-01-30T04:41:48;29.90;;;12.60;;
9712;SDS011;4895;50.926;6.870;2023-01-30T04:44:13;28.63;;;15.53;;
9712;SDS011;4895;50.926;6.870;2023-01-30T04:46:38;26.67;;;14.17;;
9712;SDS011;4895;50.926;6.870;2023-01-30T04:49:04;27.90;;;13.57;;
9712;SDS011;4895;50.926;6.870;2023-01-30T04:51:29;29.63;;;12.77;;
9712;SDS011;4895;50.926;6.870;2023-01-30T04:53:54;21.20;;;11.57;;
9712;SDS011;4895;50.926;6.870;2023-01-30T04:56:19;31.37;;;13.90;;
9712;SDS011;4895;50.926;6.870;2023-01-30T04:58:45;26.53;;;12.77;;
9712;SDS011;4895;50.926;6.870;2023-01-30T05:01:14;35.93;;;15.93;;
9712;SDS011;4895;50.926;6.870;2023-01-30T05:03:40;31.03;;;14.43;;
9712;SDS011;4895;50.926;6.870;2023-01-30T05:06:06;27.87;;;14.20;;
9712;SDS011;4895;50.926;6.870;2023-01-30T05:08:31;29.53;;;14.57;;
9712;SDS011;4895;50.926;6.870;2023-01-30T05:10:57;27.17;;;14.70;;
9712;SDS011;4895;50.926;6.870;2023-01-30T05:13:22;25.23;;;13.83;;
9712;SDS011;4895;50.926;6.870;2023-01-30T05:15:47;28.43;;;14.03;;
9712;SDS011;4895;50.926;6.870;2023-01-30T05:18:12;22.50;;;11.67;;
9712;SDS011;4895;50.926;6.870;2023-01-30T05:20:38;28.00;;;15.03;;
9712;SDS011;4895;50.926;6.870;2023-01-30T05:23:03;31.67;;;12.30;;
9712;SDS011;4895;50.926;6.870;2023-01-30T05:25:28;25.17;;;13.63;;
9712;SDS011;4895;50.926;6.870;2023-01-30T05:27:54;30.47;;;14.77;;
9712;SDS011;4895;50.926;6.870;2023-01-30T05:30:19;32.17;;;14.70;;
9712;SDS011;4895;50.926;6.870;2023-01-30T05:32:44;32.23;;;15.03;;
9712;SDS011;4895;50.926;6.870;2023-01-30T05:35:09;28.00;;;14.63;;
9712;SDS011;4895;50.926;6.870;2023-01-30T05:37:35;25.10;;;13.03;;
9712;SDS011;4895;50.926;6.870;2023-01-30T05:40:02;25.43;;;13.03;;
9712;SDS011;4895;50.926;6.870;2023-01-30T05:42:27;35.57;;;14.77;;
9712;SDS011;4895;50.926;6.870;2023-01-30T05:44:52;30.27;;;15.47;;
9712;SDS011;4895;50.926;6.870;2023-01-30T05:47:18;25.30;;;14.57;;
9712;SDS011;4895;50.926;6.870;2023-01-30T05:49:43;25.37;;;13.57;;
9712;SDS011;4895;50.926;6.870;2023-01-30T05:52:08;27.70;;;13.23;;
9712;SDS011;4895;50.926;6.870;2023-01-30T05:54:34;27.50;;;12.53;;
9712;SDS011;4895;50.926;6.870;2023-01-30T05:56:59;35.10;;;13.80;;
9712;SDS011;4895;50.926;6.870;2023-01-30T05:59:24;24.30;;;12.80;;
9712;SDS011;4895;50.926;6.870;2023-01-30T06:01:49;24.87;;;13.17;;
9712;SDS011;4895;50.926;6.870;2023-01-30T06:04:15;30.00;;;12.80;;
9712;SDS011;4895;50.926;6.870;2023-01-30T06:06:40;23.27;;;12.23;;
9712;SDS011;4895;50.926;6.870;2023-01-30T06:09:05;20.57;;;10.93;;
9712;SDS011;4895;50.926;6.870;2023-01-30T06:11:31;27.70;;;12.43;;
9712;SDS011;4895;50.926;6.870;2023-01-30T06:13:56;25.87;;;11.90;;
9712;SDS011;4895;50.926;6.870;2023-01-30T06:16:21;26.37;;;11.87;;
9712;SDS011;4895;50.926;6.870;2023-01-30T06:18:46;22.40;;;11.93;;
9712;SDS011;4895;50.926;6.870;2023-01-30T06:21:12;22.23;;;11.70;;
9712;SDS011;4895;50.926;6.870;2023-01-30T06:23:39;27.40;;;11.80;;
9712;SDS011;4895;50.926;6.870;2023-01-30T06:26:04;17.87;;;10.30;;
9712;SDS011;4895;50.926;6.870;2023-01-30T06:28:29;22.40;;;10.40;;
9712;SDS011;4895;50.926;6.870;2023-01-30T06:30:55;20.27;;;10.20;;
9712;SDS011;4895;50.926;6.870;2023-01-30T06:33:20;22.93;;;11.03;;
9712;SDS011;4895;50.926;6.870;2023-01-30T06:35:47;22.83;;;10.83;;
9712;SDS011;4895;50.926;6.870;2023-01-30T06:38:13;17.33;;;8.67;;
9712;SDS011;4895;50.926;6.870;2023-01-30T06:40:45;17.50;;;9.83;;
9712;SDS011;4895;50.926;6.870;2023-01-30T06:43:12;20.13;;;9.87;;
9712;SDS011;4895;50.926;6.870;2023-01-30T06:45:38;20.80;;;9.50;;
9712;SDS011;4895;50.926;6.870;2023-01-30T06:48:04;20.00;;;9.87;;
9712;SDS011;4895;50.926;6.870;2023-01-30T06:50:29;17.07;;;9.40;;
9712;SDS011;4895;50.926;6.870;2023-01-30T06:52:56;15.87;;;9.10;;
9712;SDS011;4895;50.926;6.870;2023-01-30T06:55:24;15.07;;;8.20;;
9712;SDS011;4895;50.926;6.870;2023-01-30T06:57:59;19.03;;;10.10;;
9712;SDS011;4895;50.926;6.870;2023-01-30T07:00:26;23.60;;;10.10;;
9712;SDS011;4895;50.926;6.870;2023-01-30T07:02:52;15.60;;;8.87;;
9712;SDS011;4895;50.926;6.870;2023-01-30T07:05:17;14.43;;;9.17;;
9712;SDS011;4895;50.926;6.870;2023-01-30T07:07:42;16.83;;;10.13;;
9712;SDS011;4895;50.926;6.870;2023-01-30T07:10:09;18.23;;;10.90;;
9712;SDS011;4895;50.926;6.870;2023-01-30T07:12:36;19.37;;;10.73;;
9712;SDS011;4895;50.926;6.870;2023-01-30T07:15:01;19.10;;;10.13;;
9712;SDS011;4895;50.926;6.870;2023-01-30T07:17:27;18.33;;;10.37;;
9712;SDS011;4895;50.926;6.870;2023-01-30T07:19:52;17.87;;;9.77;;
9712;SDS011;4895;50.926;6.870;2023-01-30T07:22:18;21.00;;;10.20;;
9712;SDS011;4895;50.926;6.870;2023-01-30T07:24:43;14.30;;;9.37;;
9712;SDS011;4895;50.926;6.870;2023-01-30T07:27:09;19.70;;;9.50;;
9712;SDS011;4895;50.926;6.870;2023-01-30T07:29:35;19.40;;;10.73;;
9712;SDS011;4895;50.926;6.870;2023-01-30T07:32:01;17.03;;;9.60;;
9712;SDS011;4895;50.926;6.870;2023-01-30T07:34:28;19.17;;;9.67;;
9712;SDS011;4895;50.926;6.870;2023-01-30T07:36:53;19.87;;;11.30;;
9712;SDS011;4895;50.926;6.870;2023-01-30T07:39:18;17.93;;;10.40;;
9712;SDS011;4895;50.926;6.870;2023-01-30T07:41:43;26.53;;;10.60;;
9712;SDS011;4895;50.926;6.870;2023-01-30T07:44:09;20.83;;;11.00;;
9712;SDS011;4895;50.926;6.870;2023-01-30T07:46:34;20.63;;;10.67;;
9712;SDS011;4895;50.926;6.870;2023-01-30T07:49:00;19.07;;;10.47;;
9712;SDS011;4895;50.926;6.870;2023-01-30T07:51:26;15.60;;;9.57;;
9712;SDS011;4895;50.926;6.870;2023-01-30T07:53:51;17.17;;;10.50;;
9712;SDS011;4895;50.926;6.870;2023-01-30T07:56:17;22.67;;;10.57;;
9712;SDS011;4895;50.926;6.870;2023-01-30T07:58:44;20.03;;;11.83;;
9712;SDS011;4895;50.926;6.870;2023-01-30T08:01:09;17.30;;;11.20;;
9712;SDS011;4895;50.926;6.870;2023-01-30T08:03:34;20.43;;;11.13;;
9712;SDS011;4895;50.926;6.870;2023-01-30T08:06:00;19.83;;;10.20;;
9712;SDS011;4895;50.926;6.870;2023-01-30T08:08:25;16.67;;;9.40;;
9712;SDS011;4895;50.926;6.870;2023-01-30T08:10:50;17.63;;;10.70;;
9712;SDS011;4895;50.926;6.870;2023-01-30T08:13:16;19.03;;;11.17;;
9712;SDS011;4895;50.926;6.870;2023-01-30T08:15:41;20.20;;;10.20;;
9712;SDS011;4895;50.926;6.870;2023-01-30T08:18:06;23.97;;;10.60;;
9712;SDS011;4895;50.926;6.870;2023-01-30T08:20:31;21.63;;;10.83;;
9712;SDS011;4895;50.926;6.870;2023-01-30T08:22:57;17.70;;;10.93;;
9712;SDS011;4895;50.926;6.870;2023-01-30T08:25:24;20.70;;;10.80;;
9712;SDS011;4895;50.926;6.870;2023-01-30T08:27:49;20.33;;;11.53;;
9712;SDS011;4895;50.926;6.870;2023-01-30T08:30:15;18.00;;;11.23;;
9712;SDS011;4895;50.926;6.870;2023-01-30T08:32:41;21.07;;;10.87;;
9712;SDS011;4895;50.926;6.870;2023-01-30T08:35:07;20.20;;;11.83;;
9712;SDS011;4895;50.926;6.870;2023-01-30T08:37:33;30.70;;;12.33;;
9712;SDS011;4895;50.926;6.870;2023-01-30T08:39:58;20.00;;;11.47;;
9712;SDS011;4895;50.926;6.870;2023-01-30T08:42:24;20.93;;;9.57;;
9712;SDS011;4895;50.926;6.870;2023-01-30T08:44:49;23.63;;;12.70;;
9712;SDS011;4895;50.926;6.870;2023-01-30T08:47:14;17.47;;;11.63;;
9712;SDS011;4895;50.926;6.870;2023-01-30T08:49:40;20.33;;;12.07;;
9712;SDS011;4895;50.926;6.870;2023-01-30T08:52:05;27.03;;;11.97;;
9712;SDS011;4895;50.926;6.870;2023-01-30T08:54:30;27.30;;;11.93;;
9712;SDS011;4895;50.926;6.870;2023-01-30T08:56:55;18.13;;;11.40;;
9712;SDS011;4895;50.926;6.870;2023-01-30T08:59:21;21.30;;;11.33;;
9712;SDS011;4895;50.926;6.870;2023-01-30T09:01:47;20.40;;;9.40;;
9712;SDS011;4895;50.926;6.870;2023-01-30T09:04:12;19.90;;;9.07;;
9712;SDS011;4895;50.926;6.870;2023-01-30T09:06:37;23.93;;;8.10;;
9712;SDS011;4895;50.926;6.870;2023-01-30T09:09:03;22.83;;;7.03;;
9712;SDS011;4895;50.926;6.870;2023-01-30T09:11:28;23.50;;;8.90;;
9712;SDS011;4895;50.926;6.870;2023-01-30T09:13:53;14.80;;;6.37;;
9712;SDS011;4895;50.926;6.870;2023-01-30T09:16:19;23.50;;;6.00;;
9712;SDS011;4895;50.926;6.870;2023-01-30T09:18:44;24.17;;;5.60;;
9712;SDS011;4895;50.926;6.870;2023-01-30T09:21:10;17.53;;;5.80;;
9712;SDS011;4895;50.926;6.870;2023-01-30T09:23:36;18.10;;;5.60;;
9712;SDS011;4895;50.926;6.870;2023-01-30T09:26:02;16.47;;;4.47;;
9712;SDS011;4895;50.926;6.870;2023-01-30T09:28:28;15.30;;;3.70;;
9712;SDS011;4895;50.926;6.870;2023-01-30T09:30:56;19.53;;;4.50;;
9712;SDS011;4895;50.926;6.870;2023-01-30T09:33:22;10.80;;;3.10;;
9712;SDS011;4895;50.926;6.870;2023-01-30T09:35:48;13.50;;;3.73;;
9712;SDS011;4895;50.926;6.870;2023-01-30T09:38:14;16.10;;;3.30;;
9712;SDS011;4895;50.926;6.870;2023-01-30T09:40:44;20.70;;;3.73;;
9712;SDS011;4895;50.926;6.870;2023-01-30T09:43:19;16.80;;;3.47;;
9712;SDS011;4895;50.926;6.870;2023-01-30T09:46:15;14.93;;;3.23;;
9712;SDS011;4895;50.926;6.870;2023-01-30T09:48:47;18.00;;;4.03;;
9712;SDS011;4895;50.926;6.870;2023-01-30T09:54:25;13.43;;;3.40;;
9712;SDS011;4895;50.926;6.870;2023-01-30T09:59:23;22.70;;;4.07;;
9712;SDS011;4895;50.926;6.870;2023-01-30T10:02:04;17.40;;;3.83;;
9712;SDS011;4895;50.926;6.870;2023-01-30T10:04:43;17.37;;;4.10;;
9712;SDS011;4895;50.926;6.870;2023-01-30T10:07:24;13.80;;;3.10;;
9712;SDS011;4895;50.926;6.870;2023-01-30T10:17:49;11.50;;;3.43;;
9712;SDS011;4895;50.926;6.870;2023-01-30T10:20:24;11.83;;;3.00;;
9712;SDS011;4895;50.926;6.870;2023-01-30T10:25:57;13.83;;;3.47;;
9712;SDS011;4895;50.926;6.870;2023-01-30T10:28:28;9.80;;;3.30;;
9712;SDS011;4895;50.926;6.870;2023-01-30T10:30:56;17.17;;;4.37;;
9712;SDS011;4895;50.926;6.870;2023-01-30T10:33:30;18.40;;;3.50;;
9712;SDS011;4895;50.926;6.870;2023-01-30T10:36:04;14.10;;;3.80;;
9712;SDS011;4895;50.926;6.870;2023-01-30T10:38:34;16.93;;;4.17;;
9712;SDS011;4895;50.926;6.870;2023-01-30T10:41:06;11.63;;;3.50;;
9712;SDS011;4895;50.926;6.870;2023-01-30T10:48:57;22.43;;;4.20;;
9712;SDS011;4895;50.926;6.870;2023-01-30T10:51:39;16.67;;;2.90;;
9712;SDS011;4895;50.926;6.870;2023-01-30T10:54:15;19.27;;;3.37;;
9712;SDS011;4895;50.926;6.870;2023-01-30T10:59:20;17.60;;;3.10;;
9712;SDS011;4895;50.926;6.870;2023-01-30T11:01:57;17.43;;;3.50;;
9712;SDS011;4895;50.926;6.870;2023-01-30T11:04:29;21.33;;;3.20;;
9712;SDS011;4895;50.926;6.870;2023-01-30T11:06:57;14.50;;;2.77;;
9712;SDS011;4895;50.926;6.870;2023-01-30T11:09:36;22.60;;;2.90;;
9712;SDS011;4895;50.926;6.870;2023-01-30T11:12:02;18.53;;;3.77;;
9712;SDS011;4895;50.926;6.870;2023-01-30T11:14:27;9.23;;;2.80;;
9712;SDS011;4895;50.926;6.870;2023-01-30T11:16:53;12.40;;;2.80;;
9712;SDS011;4895;50.926;6.870;2023-01-30T11:19:23;11.50;;;2.80;;
9712;SDS011;4895;50.926;6.870;2023-01-30T11:21:50;15.63;;;2.87;;
9712;SDS011;4895;50.926;6.870;2023-01-30T11:24:18;14.03;;;3.20;;
9712;SDS011;4895;50.926;6.870;2023-01-30T11:26:47;16.13;;;3.67;;
9712;SDS011;4895;50.926;6.870;2023-01-30T11:29:29;14.93;;;3.50;;
9712;SDS011;4895;50.926;6.870;2023-01-30T11:32:01;16.80;;;3.80;;
9712;SDS011;4895;50.926;6.870;2023-01-30T11:34:28;17.43;;;3.30;;
9712;SDS011;4895;50.926;6.870;2023-01-30T11:36:53;25.00;;;3.67;;
9712;SDS011;4895;50.926;6.870;2023-01-30T11:39:36;22.27;;;3.33;;
9712;SDS011;4895;50.926;6.870;2023-01-30T11:42:02;17.10;;;3.07;;
9712;SDS011;4895;50.926;6.870;2023-01-30T11:44:32;16.40;;;3.50;;
9712;SDS011;4895;50.926;6.870;2023-01-30T11:47:03;13.80;;;3.40;;
9712;SDS011;4895;50.926;6.870;2023-01-30T11:49:34;18.40;;;3.13;;
9712;SDS011;4895;50.926;6.870;2023-01-30T11:52:02;13.57;;;2.57;;
9712;SDS011;4895;50.926;6.870;2023-01-30T11:54:32;9.83;;;2.70;;
9712;SDS011;4895;50.926;6.870;2023-01-30T11:57:02;15.40;;;2.10;;
9712;SDS011;4895;50.926;6.870;2023-01-30T11:59:33;15.57;;;2.70;;
9712;SDS011;4895;50.926;6.870;2023-01-30T12:04:44;19.27;;;3.40;;
9712;SDS011;4895;50.926;6.870;2023-01-30T12:07:29;12.33;;;3.00;;
9712;SDS011;4895;50.926;6.870;2023-01-30T12:09:56;15.10;;;3.00;;
9712;SDS011;4895;50.926;6.870;2023-01-30T12:17:50;13.03;;;2.60;;
9712;SDS011;4895;50.926;6.870;2023-01-30T12:28:36;17.87;;;3.73;;
9712;SDS011;4895;50.926;6.870;2023-01-30T12:31:35;21.33;;;2.90;;
9712;SDS011;4895;50.926;6.870;2023-01-30T12:34:07;14.63;;;3.10;;
9712;SDS011;4895;50.926;6.870;2023-01-30T12:36:36;15.23;;;2.83;;
9712;SDS011;4895;50.926;6.870;2023-01-30T12:39:24;12.43;;;2.33;;
9712;SDS011;4895;50.926;6.870;2023-01-30T12:45:19;9.83;;;2.30;;
9712;SDS011;4895;50.926;6.870;2023-01-30T12:47:51;12.57;;;2.33;;
9712;SDS011;4895;50.926;6.870;2023-01-30T12:58:50;19.47;;;3.43;;
9712;SDS011;4895;50.926;6.870;2023-01-30T13:07:17;14.60;;;2.70;;
9712;SDS011;4895;50.926;6.870;2023-01-30T13:12:36;23.90;;;3.60;;
9712;SDS011;4895;50.926;6.870;2023-01-30T13:15:23;15.23;;;3.03;;
9712;SDS011;4895;50.926;6.870;2023-01-30T13:20:54;21.67;;;3.30;;
9712;SDS011;4895;50.926;6.870;2023-01-30T13:23:38;11.37;;;2.70;;
9712;SDS011;4895;50.926;6.870;2023-01-30T13:26:10;19.83;;;2.80;;
9712;SDS011;4895;50.926;6.870;2023-01-30T13:28:37;13.43;;;3.70;;
9712;SDS011;4895;50.926;6.870;2023-01-30T13:31:05;20.97;;;3.77;;
9712;SDS011;4895;50.926;6.870;2023-01-30T13:33:34;16.50;;;3.03;;
9712;SDS011;4895;50.926;6.870;2023-01-30T13:39:00;15.77;;;3.23;;
9712;SDS011;4895;50.926;6.870;2023-01-30T13:41:30;22.50;;;3.57;;
9712;SDS011;4895;50.926;6.870;2023-01-30T13:43:59;17.80;;;2.57;;
9712;SDS011;4895;50.926;6.870;2023-01-30T13:46:27;19.13;;;2.90;;
9712;SDS011;4895;50.926;6.870;2023-01-30T13:49:02;12.53;;;2.70;;
9712;SDS011;4895;50.926;6.870;2023-01-30T14:04:41;12.80;;;3.10;;
9712;SDS011;4895;50.926;6.870;2023-01-30T14:10:00;23.07;;;3.27;;
9712;SDS011;4895;50.926;6.870;2023-01-30T14:12:27;19.00;;;4.00;;
9712;SDS011;4895;50.926;6.870;2023-01-30T14:15:03;10.23;;;3.00;;
9712;SDS011;4895;50.926;6.870;2023-01-30T14:17:35;20.33;;;2.90;;
9712;SDS011;4895;50.926;6.870;2023-01-30T14:20:01;22.57;;;2.90;;
9712;SDS011;4895;50.926;6.870;2023-01-30T14:28:36;12.67;;;2.90;;
9712;SDS011;4895;50.926;6.870;2023-01-30T14:35:45;19.20;;;3.40;;
9712;SDS011;4895;50.926;6.870;2023-01-30T14:38:12;19.80;;;3.73;;
9712;SDS011;4895;50.926;6.870;2023-01-30T14:45:54;17.40;;;2.47;;
9712;SDS011;4895;50.926;6.870;2023-01-30T14:54:01;18.17;;;3.53;;
9712;SDS011;4895;50.926;6.870;2023-01-30T14:59:25;15.90;;;3.03;;
9712;SDS011;4895;50.926;6.870;2023-01-30T15:01:52;22.00;;;4.07;;
9712;SDS011;4895;50.926;6.870;2023-01-30T15:04:20;20.03;;;3.00;;
9712;SDS011;4895;50.926;6.870;2023-01-30T15:06:46;20.53;;;4.20;;
9712;SDS011;4895;50.926;6.870;2023-01-30T15:09:21;24.30;;;3.40;;
9712;SDS011;4895;50.926;6.870;2023-01-30T15:12:31;23.40;;;3.20;;
9712;SDS011;4895;50.926;6.870;2023-01-30T15:26:29;18.53;;;2.70;;
9712;SDS011;4895;50.926;6.870;2023-01-30T15:31:57;18.43;;;3.40;;
9712;SDS011;4895;50.926;6.870;2023-01-30T15:34:28;18.57;;;3.13;;
9712;SDS011;4895;50.926;6.870;2023-01-30T15:36:54;17.17;;;3.00;;
9712;SDS011;4895;50.926;6.870;2023-01-30T15:39:21;21.77;;;3.77;;
9712;SDS011;4895;50.926;6.870;2023-01-30T15:41:51;14.30;;;2.80;;
9712;SDS011;4895;50.926;6.870;2023-01-30T15:44:21;18.13;;;3.27;;
9712;SDS011;4895;50.926;6.870;2023-01-30T15:52:24;23.10;;;2.90;;
9712;SDS011;4895;50.926;6.870;2023-01-30T15:54:57;19.60;;;2.90;;
9712;SDS011;4895;50.926;6.870;2023-01-30T15:57:24;22.80;;;3.20;;
9712;SDS011;4895;50.926;6.870;2023-01-30T15:59:53;15.93;;;2.77;;
9712;SDS011;4895;50.926;6.870;2023-01-30T16:05:14;19.17;;;3.67;;
9712;SDS011;4895;50.926;6.870;2023-01-30T16:07:42;17.97;;;2.67;;
9712;SDS011;4895;50.926;6.870;2023-01-30T16:10:13;21.23;;;3.40;;
9712;SDS011;4895;50.926;6.870;2023-01-30T16:12:40;27.00;;;3.90;;
9712;SDS011;4895;50.926;6.870;2023-01-30T16:15:16;30.00;;;4.50;;
9712;SDS011;4895;50.926;6.870;2023-01-30T16:18:35;20.00;;;3.70;;
9712;SDS011;4895;50.926;6.870;2023-01-30T16:20:54;17.93;;;3.07;;
9712;SDS011;4895;50.926;6.870;2023-01-30T16:25:54;19.63;;;3.77;;
9712;SDS011;4895;50.926;6.870;2023-01-30T16:28:20;19.90;;;4.33;;
9712;SDS011;4895;50.926;6.870;2023-01-30T16:30:46;21.73;;;4.00;;
9712;SDS011;4895;50.926;6.870;2023-01-30T16:33:14;19.47;;;3.10;;
9712;SDS011;4895;50.926;6.870;2023-01-30T16:35:42;20.47;;;3.67;;
9712;SDS011;4895;50.926;6.870;2023-01-30T16:38:25;32.83;;;3.90;;
9712;SDS011;4895;50.926;6.870;2023-01-30T16:49:08;22.23;;;4.50;;
9712;SDS011;4895;50.926;6.870;2023-01-30T16:51:39;23.60;;;3.50;;
9712;SDS011;4895;50.926;6.870;2023-01-30T16:54:05;20.17;;;3.77;;
9712;SDS011;4895;50.926;6.870;2023-01-30T16:56:48;13.87;;;3.70;;
9712;SDS011;4895;50.926;6.870;2023-01-30T16:59:26;17.83;;;3.03;;
9712;SDS011;4895;50.926;6.870;2023-01-30T17:01:53;31.93;;;3.97;;
9712;SDS011;4895;50.926;6.870;2023-01-30T17:04:21;32.97;;;4.10;;
9712;SDS011;4895;50.926;6.870;2023-01-30T17:06:57;20.97;;;3.20;;
9712;SDS011;4895;50.926;6.870;2023-01-30T17:09:44;28.47;;;3.83;;
9712;SDS011;4895;50.926;6.870;2023-01-30T17:17:38;17.87;;;3.83;;
9712;SDS011;4895;50.926;6.870;2023-01-30T17:20:06;13.67;;;3.00;;
9712;SDS011;4895;50.926;6.870;2023-01-30T17:22:33;21.80;;;4.60;;
9712;SDS011;4895;50.926;6.870;2023-01-30T17:25:00;16.73;;;3.63;;
9712;SDS011;4895;50.926;6.870;2023-01-30T17:27:28;20.20;;;3.67;;
9712;SDS011;4895;50.926;6.870;2023-01-30T17:29:54;27.73;;;3.50;;
9712;SDS011;4895;50.926;6.870;2023-01-30T17:32:19;15.40;;;3.20;;
9712;SDS011;4895;50.926;6.870;2023-01-30T17:34:45;26.80;;;3.37;;
9712;SDS011;4895;50.926;6.870;2023-01-30T17:37:14;14.53;;;3.77;;
9712;SDS011;4895;50.926;6.870;2023-01-30T17:39:45;19.27;;;2.67;;
9712;SDS011;4895;50.926;6.870;2023-01-30T17:42:11;27.40;;;3.63;;
9712;SDS011;4895;50.926;6.870;2023-01-30T17:44:37;19.53;;;3.63;;
9712;SDS011;4895;50.926;6.870;2023-01-30T17:47:02;27.53;;;4.13;;
9712;SDS011;4895;50.926;6.870;2023-01-30T17:49:28;20.63;;;5.20;;
9712;SDS011;4895;50.926;6.870;2023-01-30T17:51:53;19.20;;;4.20;;
9712;SDS011;4895;50.926;6.870;2023-01-30T17:54:24;19.07;;;4.10;;